createdAt,value
2022-10-05T00:01:39.090Z,22.59
2022-10-05T00:04:22.986Z,22.57
2022-10-05T00:07:02.205Z,22.51
2022-10-05T00:09:33.448Z,22.44
2022-10-05T00:12:12.775Z,22.42
2022-10-05T00:14:41.244Z,22.39
2022-10-05T00:17:17.931Z,22.38
2022-10-05T00:19:47.660Z,22.40
2022-10-05T00:22:22.084Z,22.42
2022-10-05T00:24:56.320Z,22.38
2022-10-05T00:27:28.055Z,22.30
2022-10-05T00:30:00.915Z,22.23
2022-10-05T00:32:29.193Z,22.18
2022-10-05T00:34:58.830Z,22.14
2022-10-05T00:37:27.081Z,22.09
2022-10-05T00:39:55.526Z,22.06
2022-10-05T00:42:59.015Z,22.00
2022-10-05T00:45:33.923Z,21.92
2022-10-05T00:48:17.447Z,21.85
2022-10-05T00:51:06.880Z,21.76
2022-10-05T00:54:08.320Z,21.70
2022-10-05T00:57:01.601Z,21.61
2022-10-05T01:00:00.619Z,21.47
2022-10-05T01:02:37.120Z,21.36
2022-10-05T01:05:24.830Z,21.32
2022-10-05T01:08:04.007Z,21.30
2022-10-05T01:10:45.370Z,21.25
2022-10-05T01:13:40.808Z,21.17
2022-10-05T01:16:35.440Z,21.11
2022-10-05T01:19:27.935Z,21.03
2022-10-05T01:22:06.455Z,20.96
2022-10-05T01:25:11.507Z,20.91
2022-10-05T01:27:41.630Z,20.87
2022-10-05T01:30:20.005Z,20.76
2022-10-05T01:33:06.726Z,20.65
2022-10-05T01:35:35.625Z,20.56
2022-10-05T01:38:37.770Z,20.45
2022-10-05T01:41:34.085Z,20.35
2022-10-05T01:44:25.605Z,20.31
2022-10-05T01:47:15.670Z,20.23
2022-10-05T01:49:59.370Z,20.16
2022-10-05T01:52:53.084Z,20.02
2022-10-05T01:55:31.347Z,19.95
2022-10-05T01:58:07.303Z,19.92
2022-10-05T02:00:59.588Z,19.86
2022-10-05T02:03:40.165Z,19.76
2022-10-05T02:06:22.405Z,19.67
2022-10-05T02:09:02.243Z,19.61
2022-10-05T02:11:30.725Z,19.58
2022-10-05T02:14:09.594Z,19.54
2022-10-05T02:16:44.483Z,19.53
2022-10-05T02:19:28.970Z,19.43
2022-10-05T02:22:13.450Z,19.37
2022-10-05T02:24:49.375Z,19.34
2022-10-05T02:27:25.554Z,19.33
2022-10-05T02:29:57.750Z,19.27
2022-10-05T02:32:33.925Z,19.18
2022-10-05T02:35:14.060Z,19.16
2022-10-05T02:38:10.531Z,19.17
2022-10-05T02:40:38.884Z,19.18
2022-10-05T02:43:28.940Z,19.15
2022-10-05T02:46:06.607Z,19.06
2022-10-05T02:49:00.613Z,19.02
2022-10-05T02:51:31.089Z,19.02
2022-10-05T02:54:14.240Z,18.97
2022-10-05T02:56:59.205Z,18.92
2022-10-05T02:59:39.680Z,18.90
2022-10-05T03:02:16.529Z,18.89
2022-10-05T03:04:50.400Z,18.87
2022-10-05T03:07:33.599Z,18.83
2022-10-05T03:10:27.035Z,18.79
2022-10-05T03:13:14.355Z,18.79
2022-10-05T03:16:01.105Z,18.80
2022-10-05T03:18:55.445Z,18.77
2022-10-05T03:21:42.886Z,18.73
2022-10-05T03:24:20.641Z,18.70
2022-10-05T03:27:16.770Z,18.68
2022-10-05T03:29:58.030Z,18.62
2022-10-05T03:32:43.466Z,18.60
2022-10-05T03:35:25.121Z,18.57
2022-10-05T03:38:18.512Z,18.52
2022-10-05T03:40:52.160Z,18.47
2022-10-05T03:43:48.141Z,18.45
2022-10-05T03:46:38.615Z,18.41
2022-10-05T03:49:18.095Z,18.38
2022-10-05T03:52:08.176Z,18.39
2022-10-05T03:54:51.607Z,18.38
2022-10-05T03:57:27.045Z,18.40
2022-10-05T04:00:07.526Z,18.37
2022-10-05T04:02:41.893Z,18.33
2022-10-05T04:05:13.451Z,18.27
2022-10-05T04:07:47.824Z,18.24
2022-10-05T04:10:41.720Z,18.19
2022-10-05T04:13:28.375Z,18.17
2022-10-05T04:16:24.529Z,18.12
2022-10-05T04:18:55.520Z,18.09
2022-10-05T04:21:37.301Z,18.06
2022-10-05T04:24:13.505Z,18.03
2022-10-05T04:27:08.905Z,18.01
2022-10-05T04:29:54.601Z,17.99
2022-10-05T04:32:34.858Z,17.98
2022-10-05T04:35:30.719Z,17.92
2022-10-05T04:38:36.051Z,17.86
2022-10-05T04:41:23.880Z,17.81
2022-10-05T04:44:22.245Z,17.74
2022-10-05T04:47:05.286Z,17.70
2022-10-05T04:49:51.846Z,17.71
2022-10-05T04:52:56.457Z,17.70
2022-10-05T04:55:43.182Z,17.67
2022-10-05T04:58:38.854Z,17.62
2022-10-05T05:01:30.880Z,17.60
2022-10-05T05:04:12.572Z,17.58
2022-10-05T05:07:12.165Z,17.59
2022-10-05T05:10:01.205Z,17.59
2022-10-05T05:12:29.443Z,17.59
2022-10-05T05:15:18.410Z,17.56
2022-10-05T05:17:56.165Z,17.54
2022-10-05T05:20:38.568Z,17.50
2022-10-05T05:23:40.802Z,17.45
2022-10-05T05:26:47.851Z,17.41
2022-10-05T05:29:44.013Z,17.36
2022-10-05T05:32:30.134Z,17.33
2022-10-05T05:35:20.159Z,17.29
2022-10-05T05:38:19.470Z,17.26
2022-10-05T05:41:09.600Z,17.23
2022-10-05T05:43:56.130Z,17.20
2022-10-05T05:46:45.010Z,17.15
2022-10-05T05:49:23.205Z,17.09
2022-10-05T05:51:57.230Z,17.05
2022-10-05T05:54:35.046Z,17.01
2022-10-05T05:57:20.466Z,16.97
2022-10-05T06:00:09.727Z,16.93
2022-10-05T06:02:55.634Z,16.92
2022-10-05T06:05:48.960Z,16.90
2022-10-05T06:08:37.641Z,16.88
2022-10-05T06:11:31.205Z,16.88
2022-10-05T06:14:10.880Z,16.87
2022-10-05T06:16:47.507Z,16.87
2022-10-05T06:19:22.491Z,16.84
2022-10-05T06:22:23.337Z,16.81
2022-10-05T06:25:13.136Z,16.78
2022-10-05T06:27:59.711Z,16.74
2022-10-05T06:30:44.607Z,16.69
2022-10-05T06:33:15.365Z,16.67
2022-10-05T06:36:01.601Z,16.69
2022-10-05T06:38:58.400Z,16.70
2022-10-05T06:41:41.745Z,16.67
2022-10-05T06:44:32.757Z,16.69
2022-10-05T06:47:45.607Z,16.65
2022-10-05T06:50:22.732Z,16.63
2022-10-05T06:53:03.336Z,16.61
2022-10-05T06:55:51.140Z,16.58
2022-10-05T06:58:33.731Z,16.55
2022-10-05T07:01:11.868Z,16.52
2022-10-05T07:04:00.280Z,16.50
2022-10-05T07:07:32.805Z,16.48
2022-10-05T07:10:29.076Z,16.46
2022-10-05T07:13:05.649Z,16.42
2022-10-05T07:15:51.687Z,16.41
2022-10-05T07:18:37.911Z,16.37
2022-10-05T07:21:36.647Z,16.35
2022-10-05T07:24:23.515Z,16.32
2022-10-05T07:27:14.715Z,16.29
2022-10-05T07:30:01.574Z,16.27
2022-10-05T07:33:06.371Z,16.24
2022-10-05T07:36:01.870Z,16.18
2022-10-05T07:38:57.925Z,16.12
2022-10-05T07:41:41.251Z,16.06
2022-10-05T07:44:21.128Z,16.01
2022-10-05T07:47:05.760Z,15.98
2022-10-05T07:49:49.203Z,15.95
2022-10-05T07:52:48.000Z,15.93
2022-10-05T07:55:33.922Z,15.90
2022-10-05T07:58:32.296Z,15.85
2022-10-05T08:01:24.377Z,15.82
2022-10-05T08:04:13.596Z,15.79
2022-10-05T08:06:50.541Z,15.74
2022-10-05T08:09:37.370Z,15.70
2022-10-05T08:12:20.911Z,15.66
2022-10-05T08:15:21.565Z,15.62
2022-10-05T08:18:01.289Z,15.59
2022-10-05T08:20:47.956Z,15.59
2022-10-05T08:23:27.203Z,15.55
2022-10-05T08:26:28.326Z,15.53
2022-10-05T08:29:12.822Z,15.50
2022-10-05T08:31:50.747Z,15.49
2022-10-05T08:34:27.841Z,15.48
2022-10-05T08:37:33.291Z,15.46
2022-10-05T08:40:31.954Z,15.40
2022-10-05T08:43:19.974Z,15.35
2022-10-05T08:46:01.838Z,15.29
2022-10-05T08:49:03.228Z,15.26
2022-10-05T08:51:50.047Z,15.24
2022-10-05T08:54:25.777Z,15.24
2022-10-05T08:57:05.607Z,15.22
2022-10-05T09:00:03.821Z,15.21
2022-10-05T09:02:59.120Z,15.19
2022-10-05T09:05:27.365Z,15.18
2022-10-05T09:08:22.561Z,15.16
2022-10-05T09:11:11.361Z,15.09
2022-10-05T09:13:54.719Z,15.05
2022-10-05T09:16:51.679Z,15.02
2022-10-05T09:19:38.323Z,14.98
2022-10-05T09:22:51.128Z,14.96
2022-10-05T09:25:19.500Z,14.90
2022-10-05T09:27:58.748Z,14.86
2022-10-05T09:30:33.925Z,14.84
2022-10-05T09:33:26.854Z,14.83
2022-10-05T09:36:37.417Z,14.79
2022-10-05T09:39:40.641Z,14.75
2022-10-05T09:42:25.175Z,14.75
2022-10-05T09:45:02.702Z,14.71
2022-10-05T09:48:00.776Z,14.70
2022-10-05T09:51:05.470Z,14.67
2022-10-05T09:53:53.905Z,14.66
2022-10-05T09:56:51.046Z,14.62
2022-10-05T09:59:49.040Z,14.59
2022-10-05T10:02:46.457Z,14.57
2022-10-05T10:05:35.672Z,14.52
2022-10-05T10:08:30.105Z,14.49
2022-10-05T10:11:18.881Z,14.46
2022-10-05T10:14:11.205Z,14.44
2022-10-05T10:17:08.005Z,14.41
2022-10-05T10:19:38.880Z,14.38
2022-10-05T10:22:31.771Z,14.35
2022-10-05T10:25:35.685Z,14.32
2022-10-05T10:28:34.498Z,14.31
2022-10-05T10:31:27.986Z,14.32
2022-10-05T10:34:29.875Z,14.31
2022-10-05T10:37:14.406Z,14.29
2022-10-05T10:40:07.588Z,14.27
2022-10-05T10:42:47.296Z,14.25
2022-10-05T10:45:38.880Z,14.24
2022-10-05T10:48:33.126Z,14.25
2022-10-05T10:51:07.515Z,14.22
2022-10-05T10:54:04.705Z,14.21
2022-10-05T10:57:09.915Z,14.19
2022-10-05T10:59:47.201Z,14.15
2022-10-05T11:02:33.883Z,14.14
2022-10-05T11:05:02.576Z,14.13
2022-10-05T11:07:36.488Z,14.11
2022-10-05T11:10:24.803Z,14.07
2022-10-05T11:13:34.356Z,14.06
2022-10-05T11:16:33.106Z,14.03
2022-10-05T11:19:13.607Z,14.01
2022-10-05T11:21:59.965Z,14.00
2022-10-05T11:24:40.326Z,13.99
2022-10-05T11:27:38.571Z,13.96
2022-10-05T11:30:39.527Z,14.00
2022-10-05T11:33:26.081Z,13.98
2022-10-05T11:36:24.291Z,13.91
2022-10-05T11:39:07.320Z,13.85
2022-10-05T11:41:42.180Z,13.83
2022-10-05T11:44:46.806Z,13.78
2022-10-05T11:47:18.026Z,13.75
2022-10-05T11:49:52.426Z,13.76
2022-10-05T11:52:49.081Z,13.75
2022-10-05T11:55:34.561Z,13.73
2022-10-05T11:58:24.320Z,13.71
2022-10-05T12:01:06.561Z,13.70
2022-10-05T12:04:06.505Z,13.70
2022-10-05T12:06:48.554Z,13.69
2022-10-05T12:10:11.699Z,13.66
2022-10-05T12:13:05.284Z,13.62
2022-10-05T12:15:42.746Z,13.56
2022-10-05T12:18:18.509Z,13.54
2022-10-05T12:20:52.966Z,13.52
2022-10-05T12:23:38.210Z,13.48
2022-10-05T12:26:13.601Z,13.44
2022-10-05T12:28:54.880Z,13.42
2022-10-05T12:31:32.372Z,13.39
2022-10-05T12:34:22.366Z,13.37
2022-10-05T12:37:05.045Z,13.38
2022-10-05T12:39:57.442Z,13.37
2022-10-05T12:42:31.201Z,13.36
2022-10-05T12:45:10.191Z,13.36
2022-10-05T12:47:49.228Z,13.35
2022-10-05T12:50:19.836Z,13.33
2022-10-05T12:53:08.485Z,13.29
2022-10-05T12:55:36.764Z,13.28
2022-10-05T12:58:30.103Z,13.28
2022-10-05T13:01:24.885Z,13.27
2022-10-05T13:04:01.930Z,13.24
2022-10-05T13:06:39.493Z,13.21
2022-10-05T13:09:13.445Z,13.21
2022-10-05T13:11:52.805Z,13.21
2022-10-05T13:14:44.376Z,13.19
2022-10-05T13:17:40.166Z,13.18
2022-10-05T13:20:36.961Z,13.19
2022-10-05T13:23:24.146Z,13.17
2022-10-05T13:26:02.713Z,13.15
2022-10-05T13:29:04.487Z,13.12
2022-10-05T13:31:43.740Z,13.08
2022-10-05T13:34:14.886Z,13.06
2022-10-05T13:36:43.045Z,13.06
2022-10-05T13:39:29.765Z,13.04
2022-10-05T13:42:16.785Z,13.01
2022-10-05T13:44:47.660Z,13.00
2022-10-05T13:47:30.885Z,12.99
2022-10-05T13:50:08.482Z,12.99
2022-10-05T13:53:11.370Z,12.98
2022-10-05T13:55:50.034Z,12.95
2022-10-05T13:58:37.570Z,12.93
2022-10-05T14:01:14.346Z,12.93
2022-10-05T14:04:02.880Z,12.93
2022-10-05T14:06:34.051Z,12.91
2022-10-05T14:09:02.551Z,12.89
2022-10-05T14:11:36.485Z,12.89
2022-10-05T14:14:26.410Z,12.90
2022-10-05T14:16:58.047Z,12.90
2022-10-05T14:19:27.812Z,12.89
2022-10-05T14:22:12.425Z,12.91
2022-10-05T14:25:03.821Z,12.96
2022-10-05T14:27:49.101Z,13.00
2022-10-05T14:30:17.443Z,13.03
2022-10-05T14:32:57.724Z,13.10
2022-10-05T14:35:44.764Z,13.18
2022-10-05T14:38:21.613Z,13.27
2022-10-05T14:41:07.151Z,13.35
2022-10-05T14:43:36.795Z,13.43
2022-10-05T14:46:28.478Z,13.51
2022-10-05T14:49:26.599Z,13.58
2022-10-05T14:51:56.906Z,13.67
2022-10-05T14:54:36.740Z,13.76
2022-10-05T14:57:11.162Z,13.86
2022-10-05T15:00:18.890Z,13.93
2022-10-05T15:02:58.885Z,14.02
2022-10-05T15:05:34.402Z,14.11
2022-10-05T15:09:09.146Z,14.17
2022-10-05T15:11:52.124Z,14.27
2022-10-05T15:14:33.286Z,14.34
2022-10-05T15:17:17.560Z,14.41
2022-10-05T15:19:54.890Z,14.51
2022-10-05T15:22:32.810Z,14.59
2022-10-05T15:25:18.250Z,14.64
2022-10-05T15:28:07.356Z,14.68
2022-10-05T15:30:48.212Z,14.77
2022-10-05T15:33:37.600Z,14.89
2022-10-05T15:36:39.090Z,14.99
2022-10-05T15:39:33.570Z,15.05
2022-10-05T15:42:39.230Z,15.09
2022-10-05T15:45:07.365Z,15.14
2022-10-05T15:47:54.391Z,15.21
2022-10-05T15:50:46.534Z,15.27
2022-10-05T15:54:19.355Z,15.36
2022-10-05T15:56:58.874Z,15.40
2022-10-05T15:59:53.439Z,15.44
2022-10-05T16:02:34.290Z,15.51
2022-10-05T16:05:18.567Z,15.58
2022-10-05T16:08:13.283Z,15.66
2022-10-05T16:10:47.830Z,15.67
2022-10-05T16:13:46.700Z,15.73
2022-10-05T16:16:43.092Z,15.80
2022-10-05T16:19:25.902Z,15.88
2022-10-05T16:22:48.210Z,15.92
2022-10-05T16:25:29.124Z,15.95
2022-10-05T16:28:21.639Z,15.91
2022-10-05T16:31:13.356Z,15.91
2022-10-05T16:34:00.287Z,15.98
2022-10-05T16:36:46.824Z,16.03
2022-10-05T16:39:26.183Z,16.12
2022-10-05T16:42:23.400Z,16.26
2022-10-05T16:45:24.278Z,16.37
2022-10-05T16:48:21.014Z,16.46
2022-10-05T16:51:08.680Z,16.49
2022-10-05T16:53:48.644Z,16.50
2022-10-05T16:56:22.084Z,16.53
2022-10-05T16:59:08.314Z,16.61
2022-10-05T17:01:43.242Z,16.67
2022-10-05T17:04:29.602Z,16.73
2022-10-05T17:07:18.086Z,16.80
2022-10-05T17:09:51.990Z,16.88
2022-10-05T17:12:55.680Z,16.95
2022-10-05T17:16:01.571Z,17.02
2022-10-05T17:19:08.230Z,17.10
2022-10-05T17:22:05.945Z,17.19
2022-10-05T17:24:53.271Z,17.22
2022-10-05T17:27:54.100Z,17.21
2022-10-05T17:30:29.452Z,17.19
2022-10-05T17:33:05.421Z,17.28
2022-10-05T17:36:09.924Z,17.33
2022-10-05T17:38:51.630Z,17.44
2022-10-05T17:41:25.459Z,17.56
2022-10-05T17:44:16.969Z,17.74
2022-10-05T17:46:48.963Z,17.85
2022-10-05T17:50:15.462Z,17.93
2022-10-05T17:53:03.975Z,17.87
2022-10-05T17:55:35.200Z,17.89
2022-10-05T17:58:36.030Z,17.81
2022-10-05T18:01:25.945Z,17.78
2022-10-05T18:03:56.270Z,17.81
2022-10-05T18:06:29.195Z,17.81
2022-10-05T18:09:18.410Z,17.83
2022-10-05T18:12:07.864Z,17.91
2022-10-05T18:15:08.204Z,18.01
2022-10-05T18:17:47.150Z,18.06
2022-10-05T18:20:29.771Z,18.06
2022-10-05T18:23:10.591Z,18.06
2022-10-05T18:25:44.320Z,18.12
2022-10-05T18:28:15.242Z,18.18
2022-10-05T18:31:10.843Z,18.29
2022-10-05T18:33:50.910Z,18.40
2022-10-05T18:36:46.085Z,18.52
2022-10-05T18:39:22.862Z,18.61
2022-10-05T18:42:03.210Z,18.68
2022-10-05T18:44:50.884Z,18.79
2022-10-05T18:48:07.672Z,18.87
2022-10-05T18:50:49.760Z,18.94
2022-10-05T18:53:45.926Z,18.99
2022-10-05T18:56:31.355Z,19.08
2022-10-05T18:59:19.438Z,19.16
2022-10-05T19:02:21.376Z,19.30
2022-10-05T19:04:52.460Z,19.43
2022-10-05T19:08:02.027Z,19.55
2022-10-05T19:10:42.245Z,19.64
2022-10-05T19:13:19.370Z,19.81
2022-10-05T19:16:13.209Z,19.91
2022-10-05T19:18:53.100Z,20.06
2022-10-05T19:21:40.496Z,20.18
2022-10-05T19:24:23.690Z,20.28
2022-10-05T19:27:35.956Z,20.40
2022-10-05T19:30:24.014Z,20.54
2022-10-05T19:33:01.396Z,20.69
2022-10-05T19:35:29.604Z,20.86
2022-10-05T19:38:15.402Z,21.03
2022-10-05T19:41:13.775Z,21.27
2022-10-05T19:43:56.651Z,21.43
2022-10-05T19:47:00.865Z,21.57
2022-10-05T19:49:53.852Z,21.68
2022-10-05T19:52:29.280Z,21.79
2022-10-05T19:55:14.895Z,21.89
2022-10-05T19:57:50.564Z,21.98
2022-10-05T20:00:32.119Z,22.06
2022-10-05T20:03:27.505Z,22.15
2022-10-05T20:06:03.469Z,22.25
2022-10-05T20:08:48.809Z,22.41
2022-10-05T20:11:22.688Z,22.55
2022-10-05T20:13:53.666Z,22.73
2022-10-05T20:16:47.363Z,22.91
2022-10-05T20:19:51.980Z,22.98
2022-10-05T20:22:47.199Z,23.09
2022-10-05T20:25:20.651Z,23.24
2022-10-05T20:27:51.684Z,23.32
2022-10-05T20:30:25.706Z,23.50
2022-10-05T20:33:00.485Z,23.70
2022-10-05T20:35:33.415Z,23.82
2022-10-05T20:38:01.921Z,23.92
2022-10-05T20:40:31.846Z,24.02
2022-10-05T20:43:00.166Z,24.20
2022-10-05T20:45:28.472Z,24.40
2022-10-05T20:47:56.827Z,24.55
2022-10-05T20:50:25.125Z,24.65
2022-10-05T20:52:53.715Z,24.81
2022-10-05T20:55:21.916Z,25.00
2022-10-05T20:57:50.111Z,25.16
2022-10-05T21:00:18.560Z,25.31
2022-10-05T21:02:47.851Z,25.46
2022-10-05T21:05:19.053Z,25.57
2022-10-05T21:07:47.820Z,25.69
2022-10-05T21:10:16.165Z,25.76
2022-10-05T21:12:44.686Z,25.93
2022-10-05T21:15:13.306Z,26.01
2022-10-05T21:17:41.600Z,26.11
2022-10-05T21:20:12.158Z,26.27
2022-10-05T21:22:40.439Z,26.44
2022-10-05T21:25:09.930Z,26.55
2022-10-05T21:27:38.176Z,26.75
2022-10-05T21:30:07.211Z,26.92
2022-10-05T21:32:36.870Z,27.06
2022-10-05T21:35:07.143Z,27.20
2022-10-05T21:37:35.465Z,27.36
2022-10-05T21:40:06.240Z,27.42
2022-10-05T21:42:34.599Z,27.50
2022-10-05T21:45:02.986Z,27.72
2022-10-05T21:47:31.715Z,27.99
2022-10-05T21:50:01.424Z,28.30
2022-10-05T21:52:29.715Z,28.43
2022-10-05T21:55:00.294Z,28.44
2022-10-05T21:57:28.645Z,28.52
2022-10-05T21:59:57.422Z,28.67
2022-10-05T22:02:25.763Z,28.77
2022-10-05T22:04:54.891Z,28.79
2022-10-05T22:07:23.206Z,28.83
2022-10-05T22:09:52.646Z,29.06
2022-10-05T22:12:21.401Z,29.25
2022-10-05T22:14:50.567Z,29.32
2022-10-05T22:17:30.500Z,29.31
2022-10-05T22:20:00.489Z,29.46
2022-10-05T22:22:29.924Z,29.52
2022-10-05T22:24:58.144Z,29.49
2022-10-05T22:27:29.279Z,29.59
2022-10-05T22:29:59.209Z,29.71
2022-10-05T22:32:27.950Z,29.69
2022-10-05T22:34:56.170Z,29.64
2022-10-05T22:37:25.132Z,29.69
2022-10-05T22:39:56.126Z,29.68
2022-10-05T22:42:24.480Z,29.48
2022-10-05T22:44:55.526Z,29.29
2022-10-05T22:47:23.850Z,29.07
2022-10-05T22:49:52.495Z,28.92
2022-10-05T22:52:20.811Z,28.76
2022-10-05T22:54:49.123Z,28.66
2022-10-05T22:57:17.569Z,28.45
2022-10-05T22:59:45.927Z,28.23
2022-10-05T23:02:15.002Z,27.98
2022-10-05T23:04:43.271Z,27.75
2022-10-05T23:07:11.555Z,27.60
2022-10-05T23:09:40.011Z,27.41
2022-10-05T23:12:08.321Z,27.28
2022-10-05T23:14:36.961Z,27.13
2022-10-05T23:17:05.625Z,26.95
2022-10-05T23:19:34.025Z,26.78
2022-10-05T23:22:03.371Z,26.69
2022-10-05T23:24:31.666Z,26.63
2022-10-05T23:27:00.011Z,26.55
2022-10-05T23:29:29.771Z,26.52
2022-10-05T23:31:58.090Z,26.46
2022-10-05T23:34:28.170Z,26.39
2022-10-05T23:36:56.496Z,26.36
2022-10-05T23:39:28.005Z,26.33
2022-10-05T23:41:56.315Z,26.35
2022-10-05T23:44:24.790Z,26.33
2022-10-05T23:46:53.134Z,26.31
2022-10-05T23:49:24.475Z,26.28
2022-10-05T23:51:52.806Z,26.24
2022-10-05T23:54:21.125Z,26.21
2022-10-05T23:56:49.438Z,26.19
2022-10-05T23:59:17.695Z,26.13
